Time;durP1;ratioP1;P1;durP2;ratioP2;P2;SDS_P1;SDS_P2;PMS_P1;PMS_P2;Temp;Humidity;BMP_temperature;BMP_pressure;BME280_temperature;BME280_humidity;BME280_pressure;Samples;Min_cycle;Max_cycle;Signal;HPM_P1;HPM_P2
2022/01/23 00:01:52;;;;;;;20.57;17.83;;;3.80;99.90;;;;;;5089582;28;20167;-87
2022/01/23 00:04:18;;;;;;;21.03;17.33;;;3.70;99.90;;;;;;5102350;28;20187;-87
2022/01/23 00:06:48;;;;;;;21.43;17.50;;;3.70;99.90;;;;;;5103636;28;20210;-87
2022/01/23 00:09:16;;;;;;;20.83;17.30;;;3.80;99.90;;;;;;5082523;28;20206;-87
2022/01/23 00:11:49;;;;;;;19.37;17.17;;;3.90;99.90;;;;;;5082196;28;20244;-87
2022/01/23 00:19:43;;;;;;;21.73;17.20;;;3.80;99.90;;;;;;5095180;28;20268;-87
2022/01/23 00:22:10;;;;;;;23.43;16.80;;;3.80;99.90;;;;;;5104213;28;20186;-87
2022/01/23 00:32:46;;;;;;;21.40;18.40;;;3.70;99.90;;;;;;5106868;28;20644;-87
2022/01/23 00:35:12;;;;;;;24.50;20.07;;;3.70;99.90;;;;;;5080920;28;20215;-86
2022/01/23 00:37:38;;;;;;;21.53;18.10;;;3.60;99.90;;;;;;5108895;28;20195;-87
2022/01/23 00:40:05;;;;;;;24.80;19.70;;;3.70;99.90;;;;;;5104940;28;20233;-86
2022/01/23 00:42:31;;;;;;;24.30;19.23;;;3.80;99.90;;;;;;5100991;28;20205;-86
2022/01/23 00:45:13;;;;;;;24.20;19.77;;;3.70;99.90;;;;;;5079378;28;20210;-87
2022/01/23 00:47:38;;;;;;;25.17;19.73;;;3.70;99.90;;;;;;5106279;28;20198;-87
2022/01/23 00:50:04;;;;;;;24.97;20.83;;;3.70;99.90;;;;;;5097015;28;20237;-87
2022/01/23 00:52:30;;;;;;;25.63;18.37;;;3.60;99.90;;;;;;5079018;28;20679;-86
2022/01/23 00:54:57;;;;;;;24.50;20.80;;;3.70;99.90;;;;;;5105562;28;20227;-86
2022/01/23 00:57:23;;;;;;;24.40;19.97;;;3.70;99.90;;;;;;5098820;28;20265;-87
2022/01/23 00:59:49;;;;;;;25.33;19.70;;;3.70;99.90;;;;;;5063124;28;20256;-87
2022/01/23 01:02:14;;;;;;;26.73;19.33;;;3.70;99.90;;;;;;5067288;28;20187;-87
2022/01/23 01:04:40;;;;;;;22.03;18.60;;;4.00;99.90;;;;;;5092664;28;20800;-87
2022/01/23 01:07:06;;;;;;;26.20;21.40;;;4.00;99.90;;;;;;5062124;28;20199;-87
2022/01/23 01:09:31;;;;;;;23.90;19.07;;;3.90;99.90;;;;;;5099721;28;20229;-87
2022/01/23 01:12:04;;;;;;;23.23;19.43;;;3.80;99.90;;;;;;5114376;28;20209;-87
2022/01/23 01:17:19;;;;;;;25.23;18.10;;;3.90;99.90;;;;;;5108331;28;20191;-88
2022/01/23 01:36:01;;;;;;;26.73;20.63;;;3.70;99.90;;;;;;5101546;28;20219;-88
2022/01/23 01:38:27;;;;;;;24.00;19.97;;;3.70;99.90;;;;;;5057418;28;1126100;-88
2022/01/23 01:40:53;;;;;;;25.10;20.87;;;3.70;99.90;;;;;;5107000;28;20206;-87
2022/01/23 01:43:19;;;;;;;27.30;20.03;;;3.70;99.90;;;;;;5090097;28;20182;-87
2022/01/23 01:45:45;;;;;;;23.83;19.70;;;3.80;99.90;;;;;;5087612;28;20222;-87
2022/01/23 01:48:14;;;;;;;21.93;19.07;;;3.70;99.90;;;;;;5097407;28;20194;-87
2022/01/23 01:50:45;;;;;;;24.03;20.53;;;3.60;99.90;;;;;;5091110;28;20214;-87
2022/01/23 01:53:12;;;;;;;25.07;19.00;;;3.60;99.90;;;;;;5100559;28;20273;-87
2022/01/23 01:55:45;;;;;;;25.43;19.47;;;3.60;99.90;;;;;;5085574;28;20219;-87
2022/01/23 01:58:34;;;;;;;24.30;19.37;;;3.60;99.90;;;;;;5103261;28;20187;-87
2022/01/23 02:01:01;;;;;;;23.70;19.13;;;3.60;99.90;;;;;;5098481;28;20206;-87
2022/01/23 02:08:47;;;;;;;26.10;19.57;;;3.60;99.90;;;;;;5112143;28;20204;-87
2022/01/23 02:11:19;;;;;;;25.67;21.00;;;3.60;99.90;;;;;;5075151;28;20182;-87
2022/01/23 02:14:08;;;;;;;25.97;18.97;;;3.50;99.90;;;;;;5084691;28;20201;-87
2022/01/23 02:17:40;;;;;;;25.90;19.30;;;3.50;99.90;;;;;;5070616;28;20198;-87
2022/01/23 02:54:56;;;;;;;18.13;15.10;;;3.50;99.90;;;;;;5115546;28;20329;-87
2022/01/23 02:57:50;;;;;;;19.20;15.67;;;3.50;99.90;;;;;;5111076;28;20244;-87
2022/01/23 03:00:19;;;;;;;21.23;16.60;;;3.60;99.90;;;;;;5114740;28;20179;-87
2022/01/23 03:02:48;;;;;;;17.43;15.53;;;3.60;99.90;;;;;;5099839;28;20220;-87
2022/01/23 03:05:24;;;;;;;18.87;14.77;;;3.60;99.90;;;;;;5105475;28;20202;-87
2022/01/23 03:10:29;;;;;;;18.87;14.83;;;3.70;99.90;;;;;;5102091;28;20558;-87
2022/01/23 03:26:18;;;;;;;16.20;14.23;;;4.00;99.90;;;;;;5104775;28;20204;-87
2022/01/23 03:33:44;;;;;;;19.27;16.20;;;4.30;99.90;;;;;;5113424;28;20187;-87
2022/01/23 03:36:10;;;;;;;14.43;13.00;;;4.40;99.90;;;;;;5091426;28;20358;-88
2022/01/23 03:38:36;;;;;;;16.00;14.30;;;4.40;99.90;;;;;;5092157;28;20210;-87
2022/01/23 03:41:02;;;;;;;17.27;15.47;;;4.40;99.90;;;;;;5103383;28;20241;-88
2022/01/23 03:43:32;;;;;;;18.43;16.50;;;4.40;99.90;;;;;;5084608;28;20191;-87
2022/01/23 03:51:10;;;;;;;19.07;15.53;;;4.60;99.90;;;;;;5104359;28;20195;-87
2022/01/23 03:53:36;;;;;;;17.90;15.40;;;4.60;99.90;;;;;;5099541;28;20213;-88
2022/01/23 03:56:02;;;;;;;19.63;15.77;;;4.70;99.90;;;;;;5082094;28;20295;-88
2022/01/23 03:58:28;;;;;;;19.93;15.60;;;4.60;99.90;;;;;;5068550;28;20192;-88
2022/01/23 04:00:54;;;;;;;19.30;16.47;;;4.40;99.90;;;;;;5070001;28;20294;-88
2022/01/23 04:03:20;;;;;;;19.17;15.70;;;4.20;99.90;;;;;;5106378;28;20660;-88
2022/01/23 04:05:47;;;;;;;17.27;15.03;;;4.10;99.90;;;;;;5097628;28;20221;-88
2022/01/23 04:08:15;;;;;;;18.30;15.57;;;4.10;99.90;;;;;;5078512;28;20182;-88
2022/01/23 04:10:41;;;;;;;18.23;15.67;;;4.20;99.90;;;;;;5097280;28;20528;-88
2022/01/23 04:13:20;;;;;;;18.53;15.10;;;4.20;99.90;;;;;;5097904;28;20186;-88
2022/01/23 04:21:17;;;;;;;17.73;15.13;;;4.10;99.90;;;;;;5098658;28;20770;-87
2022/01/23 04:45:30;;;;;;;17.80;14.63;;;4.20;99.90;;;;;;5098684;28;20225;-88
2022/01/23 05:04:20;;;;;;;17.70;13.70;;;4.50;99.90;;;;;;5084502;28;20230;-87
2022/01/23 05:06:49;;;;;;;17.00;14.07;;;4.50;99.90;;;;;;5085647;28;20274;-87
2022/01/23 05:09:15;;;;;;;17.87;14.70;;;4.50;99.90;;;;;;5102868;28;20210;-88
2022/01/23 05:11:51;;;;;;;16.63;14.57;;;4.50;99.90;;;;;;5099108;28;20178;-88
2022/01/23 05:14:21;;;;;;;16.03;14.33;;;4.50;99.90;;;;;;5103030;28;20187;-87
2022/01/23 05:16:47;;;;;;;15.17;13.60;;;4.30;99.90;;;;;;5103840;28;20519;-87
2022/01/23 05:19:13;;;;;;;15.17;13.57;;;4.20;99.90;;;;;;5098325;28;20302;-87
2022/01/23 05:24:10;;;;;;;20.47;16.23;;;4.30;99.90;;;;;;5110694;28;20300;-87
2022/01/23 05:26:43;;;;;;;16.87;15.10;;;4.30;99.90;;;;;;5082000;28;20689;-87
2022/01/23 05:29:10;;;;;;;16.30;14.47;;;4.40;99.90;;;;;;5094693;28;20215;-88
2022/01/23 05:31:35;;;;;;;15.00;13.50;;;4.40;99.90;;;;;;5098876;28;20267;-87
2022/01/23 05:34:01;;;;;;;18.50;15.50;;;4.40;99.90;;;;;;5114114;28;20720;-87
2022/01/23 05:36:27;;;;;;;16.20;14.50;;;4.40;99.90;;;;;;5118643;28;20224;-87
2022/01/23 05:38:53;;;;;;;16.30;14.60;;;4.40;99.90;;;;;;5093290;28;20205;-87
2022/01/23 05:41:19;;;;;;;18.77;16.53;;;4.40;99.90;;;;;;5092075;28;20195;-87
2022/01/23 05:43:45;;;;;;;17.90;14.97;;;4.40;99.90;;;;;;5095455;28;20649;-88
2022/01/23 05:46:11;;;;;;;16.83;14.30;;;4.40;99.90;;;;;;5076880;28;20196;-87
2022/01/23 05:48:37;;;;;;;14.83;12.43;;;4.30;99.90;;;;;;5102628;28;20191;-88
2022/01/23 05:51:05;;;;;;;14.23;12.73;;;4.30;99.90;;;;;;5096929;28;20211;-87
2022/01/23 05:53:30;;;;;;;16.53;14.83;;;4.40;99.90;;;;;;5079588;28;20222;-87
2022/01/23 05:55:56;;;;;;;15.40;13.53;;;4.50;99.90;;;;;;5096609;28;20218;-87
2022/01/23 05:58:22;;;;;;;15.33;13.63;;;4.50;99.90;;;;;;5098587;28;20199;-87
2022/01/23 06:00:48;;;;;;;15.13;13.13;;;4.50;99.90;;;;;;5081482;28;20215;-87
2022/01/23 06:03:13;;;;;;;14.23;12.83;;;4.50;99.90;;;;;;5078908;28;20198;-88
2022/01/23 06:05:39;;;;;;;14.07;12.63;;;4.50;99.90;;;;;;5080906;28;20701;-87
2022/01/23 06:08:05;;;;;;;16.03;13.67;;;4.50;99.90;;;;;;5100233;28;20261;-88
2022/01/23 06:10:46;;;;;;;14.93;13.33;;;4.50;99.90;;;;;;5080379;28;20266;-87
2022/01/23 06:13:12;;;;;;;17.47;13.43;;;4.60;99.90;;;;;;5091886;28;20195;-88
2022/01/23 06:15:38;;;;;;;16.00;13.07;;;4.60;99.90;;;;;;5071064;28;20269;-86
2022/01/23 06:18:03;;;;;;;15.07;12.73;;;4.60;99.90;;;;;;5098049;28;20191;-86
2022/01/23 06:20:29;;;;;;;16.27;13.53;;;4.60;99.90;;;;;;5095983;28;20211;-86
2022/01/23 06:22:55;;;;;;;15.50;13.80;;;4.60;99.90;;;;;;5091791;28;20191;-86
2022/01/23 06:25:21;;;;;;;14.97;13.20;;;4.60;99.90;;;;;;5061607;28;20194;-87
2022/01/23 06:27:47;;;;;;;14.57;13.03;;;4.50;99.90;;;;;;5105054;28;20198;-86
2022/01/23 06:30:13;;;;;;;15.17;13.57;;;4.60;99.90;;;;;;5097891;28;20218;-86
2022/01/23 06:32:39;;;;;;;15.00;12.93;;;4.60;99.90;;;;;;5108203;28;20186;-86
2022/01/23 06:35:05;;;;;;;15.70;13.83;;;4.60;99.90;;;;;;5089453;28;20215;-87
2022/01/23 06:37:31;;;;;;;16.03;13.97;;;4.50;99.90;;;;;;5079225;28;20213;-86
2022/01/23 06:39:56;;;;;;;15.33;13.53;;;4.60;99.90;;;;;;5098183;28;20215;-86
2022/01/23 06:42:22;;;;;;;14.83;12.93;;;4.60;99.90;;;;;;5085532;28;20217;-87
2022/01/23 06:44:48;;;;;;;16.87;13.53;;;4.60;99.90;;;;;;5107700;28;20191;-87
2022/01/23 06:47:13;;;;;;;14.37;12.67;;;4.50;99.90;;;;;;5068039;28;20190;-87
2022/01/23 06:49:39;;;;;;;14.60;13.10;;;4.50;99.90;;;;;;5101322;28;20218;-87
2022/01/23 06:52:05;;;;;;;14.77;13.27;;;4.50;99.90;;;;;;5090618;28;20183;-87
2022/01/23 06:54:31;;;;;;;15.33;13.67;;;4.50;99.90;;;;;;5084160;28;20207;-87
2022/01/23 06:56:57;;;;;;;18.13;15.10;;;4.50;99.90;;;;;;5102711;28;20191;-87
2022/01/23 06:59:22;;;;;;;14.67;13.10;;;4.40;99.90;;;;;;5087049;28;20207;-86
2022/01/23 07:01:48;;;;;;;16.53;14.73;;;4.50;99.90;;;;;;5091556;28;20190;-87
2022/01/23 07:04:14;;;;;;;14.30;12.80;;;4.50;99.90;;;;;;5085102;28;20214;-88
2022/01/23 07:06:39;;;;;;;13.73;12.30;;;4.50;99.90;;;;;;5094226;28;20198;-87
2022/01/23 07:09:05;;;;;;;14.60;13.13;;;4.50;99.90;;;;;;5114234;28;20206;-87
2022/01/23 07:11:31;;;;;;;14.97;13.47;;;4.50;99.90;;;;;;5113468;28;20268;-87
2022/01/23 07:13:57;;;;;;;15.90;13.43;;;4.50;99.90;;;;;;5098825;28;20670;-88
2022/01/23 07:16:23;;;;;;;17.67;15.37;;;4.50;99.90;;;;;;5086944;28;20221;-88
2022/01/23 07:18:48;;;;;;;15.27;13.67;;;4.50;99.90;;;;;;5087755;28;20236;-87
2022/01/23 07:21:14;;;;;;;15.50;13.70;;;4.30;99.90;;;;;;5081969;28;20191;-88
2022/01/23 07:23:48;;;;;;;14.97;13.37;;;4.40;99.90;;;;;;5055452;28;20659;-88
2022/01/23 07:26:14;;;;;;;15.17;13.60;;;4.50;99.90;;;;;;5091515;28;20178;-87
2022/01/23 07:28:42;;;;;;;17.13;15.23;;;4.60;99.90;;;;;;5082556;28;20216;-88
2022/01/23 07:31:10;;;;;;;16.97;14.57;;;4.50;99.90;;;;;;5079918;28;20236;-88
2022/01/23 07:33:36;;;;;;;18.20;14.77;;;4.40;99.90;;;;;;5101880;28;20187;-88
2022/01/23 07:36:05;;;;;;;16.23;14.53;;;4.50;99.90;;;;;;5102279;28;20242;-88
2022/01/23 07:38:31;;;;;;;16.50;14.07;;;4.50;99.90;;;;;;5102951;28;20800;-87
2022/01/23 07:40:57;;;;;;;18.17;15.17;;;4.50;99.90;;;;;;5082943;28;20202;-87
2022/01/23 07:43:23;;;;;;;18.87;16.13;;;4.60;99.90;;;;;;5100334;28;20187;-88
2022/01/23 07:45:49;;;;;;;18.27;16.17;;;4.50;99.90;;;;;;5079732;28;20255;-88
2022/01/23 07:48:14;;;;;;;20.70;16.07;;;4.40;99.90;;;;;;5072589;28;20183;-87
2022/01/23 07:50:40;;;;;;;17.43;15.73;;;4.40;99.90;;;;;;5133670;28;20217;-87
2022/01/23 07:53:06;;;;;;;18.30;16.13;;;4.40;99.90;;;;;;5104005;28;20175;-87
2022/01/23 07:55:32;;;;;;;18.40;16.50;;;4.50;99.90;;;;;;5115619;28;20222;-87
2022/01/23 07:58:04;;;;;;;18.47;15.90;;;4.40;99.90;;;;;;5105615;28;20306;-87
2022/01/23 08:00:30;;;;;;;17.73;15.83;;;4.50;99.90;;;;;;5095057;28;20245;-88
2022/01/23 08:02:55;;;;;;;15.97;14.27;;;4.60;99.90;;;;;;5096885;28;20187;-87
2022/01/23 08:05:21;;;;;;;15.57;13.97;;;4.70;99.90;;;;;;5102797;28;20199;-87
2022/01/23 08:07:47;;;;;;;15.17;13.57;;;4.60;99.90;;;;;;5068697;28;20674;-87
2022/01/23 08:10:15;;;;;;;15.00;13.40;;;4.60;99.90;;;;;;5094247;28;20280;-87
2022/01/23 08:12:41;;;;;;;16.97;14.50;;;4.60;99.90;;;;;;5080551;28;20193;-88
2022/01/23 08:15:07;;;;;;;19.37;15.50;;;4.40;99.90;;;;;;5081864;28;20222;-89
2022/01/23 08:17:33;;;;;;;17.10;15.17;;;4.50;99.90;;;;;;5101503;28;20191;-88
2022/01/23 08:20:01;;;;;;;15.67;13.53;;;4.50;99.90;;;;;;5079560;28;20361;-89
2022/01/23 08:22:29;;;;;;;15.50;13.87;;;4.50;99.90;;;;;;5106117;28;20190;-88
2022/01/23 08:24:56;;;;;;;16.63;14.80;;;4.50;99.90;;;;;;5101475;28;20222;-89
2022/01/23 08:27:26;;;;;;;16.80;15.03;;;4.60;99.90;;;;;;5105049;28;20201;-89
2022/01/23 08:29:52;;;;;;;17.87;15.40;;;4.60;99.90;;;;;;5100183;28;20210;-89
2022/01/23 08:32:18;;;;;;;15.90;14.20;;;4.70;99.90;;;;;;5097383;28;20208;-89
2022/01/23 08:34:44;;;;;;;15.87;13.83;;;4.70;99.90;;;;;;5066552;28;20226;-89
2022/01/23 08:37:10;;;;;;;16.03;14.33;;;4.70;99.90;;;;;;5094750;28;20260;-89
2022/01/23 08:39:37;;;;;;;15.07;13.47;;;4.70;99.90;;;;;;5096345;28;20664;-89
2022/01/23 08:42:04;;;;;;;18.93;15.07;;;4.70;99.90;;;;;;5076696;28;20187;-89
2022/01/23 08:44:31;;;;;;;19.27;16.07;;;4.70;99.90;;;;;;5099120;28;21335;-89
2022/01/23 08:46:57;;;;;;;17.70;15.50;;;4.60;99.90;;;;;;5088325;28;20190;-89
2022/01/23 08:49:25;;;;;;;17.50;14.77;;;4.50;99.90;;;;;;5094094;28;20260;-88
2022/01/23 08:51:52;;;;;;;16.83;14.73;;;4.40;99.90;;;;;;5103529;28;20259;-88
2022/01/23 08:54:18;;;;;;;16.13;14.40;;;4.50;99.90;;;;;;5079963;28;20195;-88
2022/01/23 08:56:44;;;;;;;16.90;15.10;;;4.40;99.90;;;;;;5099482;28;20183;-88
2022/01/23 08:59:10;;;;;;;16.57;14.97;;;4.40;99.90;;;;;;5083457;28;20210;-89
2022/01/23 09:01:36;;;;;;;19.10;16.70;;;4.60;99.90;;;;;;5095707;28;20183;-88
2022/01/23 09:04:03;;;;;;;17.10;14.50;;;4.70;99.90;;;;;;5110816;28;20191;-88
2022/01/23 09:06:30;;;;;;;16.33;14.60;;;4.70;99.90;;;;;;5089389;28;20674;-88
2022/01/23 09:08:58;;;;;;;16.80;15.00;;;4.80;99.90;;;;;;5066526;28;20270;-88
2022/01/23 09:11:27;;;;;;;23.30;18.27;;;4.80;99.90;;;;;;5092539;28;20183;-88
2022/01/23 09:14:07;;;;;;;19.67;17.50;;;4.80;99.90;;;;;;5075097;28;20190;-88
2022/01/23 09:16:43;;;;;;;18.00;16.10;;;4.80;99.90;;;;;;5072967;28;20237;-89
2022/01/23 09:19:10;;;;;;;19.73;15.60;;;4.70;99.90;;;;;;5082597;28;20214;-89
2022/01/23 09:21:37;;;;;;;18.83;16.83;;;4.80;99.90;;;;;;5080046;28;20174;-89
2022/01/23 09:24:03;;;;;;;17.57;15.77;;;4.90;99.90;;;;;;5101254;28;20194;-90
2022/01/23 09:26:29;;;;;;;15.83;14.13;;;4.80;99.90;;;;;;5080873;28;20176;-90
2022/01/23 09:28:58;;;;;;;20.10;16.33;;;4.80;99.90;;;;;;5074938;28;20495;-89
2022/01/23 09:31:31;;;;;;;20.37;18.17;;;4.80;99.90;;;;;;5116473;28;20634;-88
2022/01/23 09:33:57;;;;;;;18.57;16.67;;;4.90;99.90;;;;;;5095278;28;20171;-91
2022/01/23 09:36:23;;;;;;;18.23;15.97;;;4.90;99.90;;;;;;5116484;28;20222;-90
2022/01/23 09:38:48;;;;;;;18.80;16.77;;;4.90;99.90;;;;;;5118193;28;20184;-89
2022/01/23 09:41:17;;;;;;;17.43;14.97;;;4.90;99.90;;;;;;5087134;28;20171;-90
2022/01/23 09:43:45;;;;;;;21.13;18.80;;;4.90;99.90;;;;;;5088661;28;20191;-89
2022/01/23 09:46:12;;;;;;;19.20;17.20;;;5.10;99.90;;;;;;5063601;28;20796;-88
2022/01/23 09:48:42;;;;;;;20.47;16.70;;;5.30;99.90;;;;;;5094326;28;20566;-89
2022/01/23 09:51:08;;;;;;;18.93;16.97;;;5.10;99.90;;;;;;5061824;28;20250;-88
2022/01/23 09:53:34;;;;;;;18.77;16.77;;;5.00;99.90;;;;;;5103168;28;20195;-88
2022/01/23 09:56:05;;;;;;;18.67;16.63;;;5.20;99.90;;;;;;5056785;28;20203;-88
2022/01/23 09:58:32;;;;;;;19.33;17.33;;;5.30;99.90;;;;;;5052628;28;20199;-88
2022/01/23 10:01:00;;;;;;;18.03;16.13;;;5.40;99.90;;;;;;5087778;28;20212;-90
2022/01/23 10:03:26;;;;;;;21.27;18.07;;;5.50;99.90;;;;;;5094281;28;20246;-89
2022/01/23 10:05:54;;;;;;;22.23;19.53;;;5.40;99.90;;;;;;5096907;28;20213;-88
2022/01/23 10:08:27;;;;;;;18.97;16.87;;;5.50;99.90;;;;;;5100225;28;20195;-90
2022/01/23 10:10:55;;;;;;;18.13;16.30;;;5.50;99.90;;;;;;5100381;28;20203;-89
2022/01/23 10:13:22;;;;;;;17.33;15.37;;;5.50;99.90;;;;;;5093724;28;20184;-90
2022/01/23 10:15:48;;;;;;;22.40;19.90;;;5.50;99.90;;;;;;5093178;28;20769;-88
2022/01/23 10:18:15;;;;;;;27.77;24.87;;;5.50;99.90;;;;;;5073315;28;20269;-88
2022/01/23 10:20:41;;;;;;;36.77;32.53;;;5.50;99.90;;;;;;5090775;28;20194;-89
2022/01/23 10:23:09;;;;;;;21.27;18.87;;;5.60;99.90;;;;;;5092212;28;20194;-89
2022/01/23 10:25:40;;;;;;;21.40;17.17;;;5.70;99.90;;;;;;5089163;28;20237;-88
2022/01/23 10:28:17;;;;;;;19.30;17.27;;;5.80;99.90;;;;;;5092354;28;20179;-89
2022/01/23 10:30:47;;;;;;;20.33;17.03;;;5.90;99.90;;;;;;5069281;28;20202;-89
2022/01/23 10:33:29;;;;;;;19.07;16.83;;;5.70;99.90;;;;;;5062451;28;20270;-88
2022/01/23 10:36:17;;;;;;;32.00;28.80;;;5.70;99.90;;;;;;5081017;28;20210;-89
2022/01/23 10:39:01;;;;;;;18.90;16.90;;;5.80;99.90;;;;;;5086454;28;20693;-89
2022/01/23 10:50:07;;;;;;;22.80;20.53;;;5.90;99.90;;;;;;5080550;28;20210;-89
2022/01/23 10:52:38;;;;;;;21.30;17.20;;;5.80;99.90;;;;;;5087077;28;20638;-89
2022/01/23 10:55:26;;;;;;;19.63;17.53;;;5.90;99.90;;;;;;5069724;28;20216;-89
2022/01/23 10:57:57;;;;;;;20.30;18.17;;;6.00;99.90;;;;;;5061282;28;20719;-89
2022/01/23 11:00:35;;;;;;;20.83;17.40;;;5.90;99.90;;;;;;5068500;28;20208;-89
2022/01/23 11:03:19;;;;;;;20.87;18.57;;;6.00;99.90;;;;;;5092176;28;20183;-89
2022/01/23 11:05:45;;;;;;;20.77;17.77;;;5.90;99.90;;;;;;5095418;28;20189;-89
2022/01/23 11:08:32;;;;;;;20.47;18.27;;;5.90;99.90;;;;;;5074428;28;20192;-89
2022/01/23 11:11:02;;;;;;;22.67;19.00;;;5.90;99.90;;;;;;5100186;28;20712;-89
2022/01/23 11:19:23;;;;;;;25.87;19.17;;;6.20;99.90;;;;;;5092589;28;20206;-89
2022/01/23 11:21:51;;;;;;;25.30;19.93;;;6.20;99.90;;;;;;5077861;28;20191;-89
2022/01/23 11:24:17;;;;;;;25.93;20.40;;;6.30;99.90;;;;;;5075289;28;20179;-88
2022/01/23 11:26:42;;;;;;;41.03;30.57;;;6.30;99.90;;;;;;5096073;28;20693;-89
2022/01/23 11:29:18;;;;;;;26.90;23.47;;;6.20;99.90;;;;;;5089178;28;20648;-89
2022/01/23 11:31:44;;;;;;;25.10;21.13;;;6.20;99.90;;;;;;5089492;28;20186;-89
2022/01/23 11:34:12;;;;;;;26.03;21.53;;;6.20;99.90;;;;;;5093393;28;20184;-89
2022/01/23 11:36:39;;;;;;;25.87;21.13;;;6.30;99.90;;;;;;5074109;28;20187;-89
2022/01/23 11:39:14;;;;;;;50.90;42.67;;;6.20;99.90;;;;;;5073040;28;20291;-89
2022/01/23 11:56:29;;;;;;;28.77;24.07;;;6.40;99.90;;;;;;5086807;28;20225;-90
2022/01/23 12:01:41;;;;;;;28.40;25.47;;;6.40;99.90;;;;;;5087476;28;20556;-90
2022/01/23 12:04:07;;;;;;;27.77;22.40;;;6.40;99.90;;;;;;5065910;28;20694;-89
2022/01/23 12:06:37;;;;;;;36.70;32.67;;;6.40;99.90;;;;;;5092852;28;20191;-89
2022/01/23 12:09:23;;;;;;;34.07;30.30;;;6.40;99.90;;;;;;5069128;28;20722;-89
2022/01/23 12:12:36;;;;;;;33.37;26.90;;;6.50;99.90;;;;;;5095281;28;20213;-89
2022/01/23 12:18:21;;;;;;;26.73;23.97;;;6.50;99.90;;;;;;5106842;28;20267;-88
2022/01/23 12:20:49;;;;;;;29.50;24.47;;;6.50;99.90;;;;;;5084685;28;20218;-89
2022/01/23 12:23:16;;;;;;;32.23;27.60;;;6.50;99.90;;;;;;5111874;28;20281;-88
2022/01/23 12:25:45;;;;;;;27.27;24.37;;;6.60;99.90;;;;;;5096396;28;20194;-88
2022/01/23 12:28:14;;;;;;;29.97;26.07;;;6.60;99.90;;;;;;5087365;28;20218;-89
2022/01/23 12:30:42;;;;;;;25.53;22.70;;;6.60;99.90;;;;;;5091040;28;20210;-88
2022/01/23 12:33:19;;;;;;;29.27;22.90;;;6.60;99.90;;;;;;5090470;28;20405;-88
2022/01/23 12:35:52;;;;;;;25.67;22.43;;;6.50;99.90;;;;;;5073838;28;20555;-87
2022/01/23 12:38:19;;;;;;;29.17;23.60;;;6.60;99.90;;;;;;5070722;28;20194;-88
2022/01/23 12:40:47;;;;;;;27.43;24.20;;;6.70;99.90;;;;;;5069921;28;20631;-90
2022/01/23 12:43:27;;;;;;;76.27;59.53;;;6.70;99.90;;;;;;5072655;28;20187;-89
2022/01/23 12:46:04;;;;;;;39.57;34.53;;;6.80;99.90;;;;;;5066716;28;20214;-88
2022/01/23 12:48:39;;;;;;;29.23;26.03;;;6.80;99.90;;;;;;5089942;28;20201;-89
2022/01/23 12:51:17;;;;;;;29.53;26.37;;;6.80;99.90;;;;;;5082599;28;20573;-89
2022/01/23 12:53:51;;;;;;;30.67;27.47;;;6.80;99.90;;;;;;5090226;28;20735;-89
2022/01/23 12:56:19;;;;;;;25.00;22.23;;;6.80;99.90;;;;;;5083146;28;20236;-89
2022/01/23 12:59:05;;;;;;;25.70;21.10;;;6.80;99.90;;;;;;5070393;28;20191;-88
2022/01/23 13:01:31;;;;;;;30.23;23.70;;;6.70;99.90;;;;;;5086816;28;20202;-87
2022/01/23 13:04:02;;;;;;;28.23;22.87;;;6.80;99.90;;;;;;5088344;28;20736;-87
2022/01/23 13:07:08;;;;;;;39.73;35.63;;;6.80;99.90;;;;;;5088564;28;20677;-87
2022/01/23 13:10:03;;;;;;;27.57;23.47;;;6.90;99.90;;;;;;5085812;28;20215;-88
2022/01/23 13:18:12;;;;;;;26.57;23.43;;;7.10;98.60;;;;;;5086460;28;20183;-88
2022/01/23 13:34:57;;;;;;;22.20;18.97;;;7.40;95.50;;;;;;5071159;28;20219;-89
2022/01/23 13:37:30;;;;;;;19.53;17.50;;;7.50;94.80;;;;;;5062700;28;20190;-89
2022/01/23 13:40:03;;;;;;;18.33;15.90;;;7.50;95.30;;;;;;5084204;28;20246;-88
2022/01/23 13:59:39;;;;;;;26.63;21.70;;;7.20;94.50;;;;;;5081988;28;20302;-90
2022/01/23 14:02:19;;;;;;;21.50;17.13;;;7.10;96.10;;;;;;5081493;28;20581;-89
2022/01/23 14:04:49;;;;;;;50.80;45.07;;;7.20;95.30;;;;;;5080403;28;20583;-89
2022/01/23 14:07:24;;;;;;;52.10;45.10;;;7.20;95.70;;;;;;5068846;28;20190;-89
2022/01/23 14:09:51;;;;;;;22.13;19.83;;;7.20;95.00;;;;;;5067126;28;20217;-88
2022/01/23 14:12:19;;;;;;;21.00;18.90;;;7.20;96.10;;;;;;5085722;28;20486;-89
2022/01/23 14:14:50;;;;;;;21.33;18.07;;;7.20;95.90;;;;;;5048000;28;20306;-88
2022/01/23 14:17:16;;;;;;;21.70;19.47;;;7.20;94.80;;;;;;5085286;28;20206;-89
2022/01/23 14:19:59;;;;;;;23.00;17.07;;;7.30;94.70;;;;;;5066983;28;20211;-88
2022/01/23 14:22:30;;;;;;;18.83;16.10;;;7.30;94.00;;;;;;5093624;28;20191;-88
2022/01/23 14:25:20;;;;;;;17.30;15.47;;;7.20;94.00;;;;;;5089912;28;20205;-88
2022/01/23 14:28:10;;;;;;;17.37;15.57;;;7.30;94.30;;;;;;5061668;28;20228;-88
2022/01/23 14:30:54;;;;;;;17.67;15.77;;;7.30;94.10;;;;;;5087125;28;20609;-90
2022/01/23 14:33:30;;;;;;;16.63;14.47;;;7.20;93.30;;;;;;5076984;28;20282;-90
2022/01/23 14:35:56;;;;;;;14.60;13.20;;;7.20;93.50;;;;;;5101549;28;20226;-89
2022/01/23 14:38:24;;;;;;;15.03;12.70;;;7.20;93.20;;;;;;5093814;28;20206;-89
2022/01/23 14:41:08;;;;;;;13.07;11.70;;;7.20;90.70;;;;;;5065280;28;20275;-89
2022/01/23 14:43:39;;;;;;;13.70;12.30;;;7.10;90.90;;;;;;5069048;28;20309;-89
2022/01/23 14:46:10;;;;;;;13.97;12.47;;;7.10;91.20;;;;;;5056962;28;20211;-88
2022/01/23 14:48:45;;;;;;;15.93;13.47;;;7.10;92.10;;;;;;5081619;28;20260;-88
2022/01/23 14:51:17;;;;;;;14.80;13.27;;;6.90;93.40;;;;;;5087961;28;20208;-89
2022/01/23 14:53:42;;;;;;;14.87;13.27;;;6.90;92.40;;;;;;5068946;28;20203;-89
2022/01/23 14:56:11;;;;;;;17.53;13.63;;;7.00;92.30;;;;;;5066395;28;20218;-89
2022/01/23 14:58:37;;;;;;;17.83;14.63;;;6.90;93.90;;;;;;5088008;28;20251;-89
2022/01/23 15:01:07;;;;;;;17.23;14.97;;;7.00;93.10;;;;;;5066906;28;20622;-88
2022/01/23 15:03:33;;;;;;;20.47;17.40;;;7.10;92.70;;;;;;5089752;28;20188;-88
2022/01/23 15:06:03;;;;;;;21.43;16.13;;;7.00;93.30;;;;;;5060907;28;20213;-89
2022/01/23 15:08:29;;;;;;;20.00;15.47;;;6.90;93.90;;;;;;5071577;28;20199;-88
2022/01/23 15:11:00;;;;;;;19.73;16.67;;;7.00;94.40;;;;;;5073814;28;20222;-87
2022/01/23 15:13:27;;;;;;;19.93;16.13;;;6.90;94.70;;;;;;5086237;28;20198;-89
2022/01/23 15:15:54;;;;;;;18.63;16.27;;;6.90;94.90;;;;;;5048080;28;20216;-88
2022/01/23 15:18:20;;;;;;;19.30;17.30;;;6.90;95.60;;;;;;5076155;28;20876;-88
2022/01/23 15:20:46;;;;;;;17.40;15.53;;;7.00;94.70;;;;;;5088212;28;20203;-88
2022/01/23 15:23:14;;;;;;;15.60;13.53;;;7.00;93.90;;;;;;5087870;28;20183;-87
2022/01/23 15:25:40;;;;;;;14.23;12.83;;;6.90;94.10;;;;;;5072431;28;20283;-87
2022/01/23 15:28:07;;;;;;;13.10;11.60;;;6.80;92.40;;;;;;5091872;28;20244;-87
2022/01/23 15:30:33;;;;;;;13.43;11.80;;;6.80;89.70;;;;;;5073326;28;20222;-88
2022/01/23 15:33:01;;;;;;;15.37;13.63;;;6.80;90.30;;;;;;5088437;28;20206;-87
2022/01/23 15:35:27;;;;;;;17.93;16.10;;;6.80;91.40;;;;;;5071243;28;20213;-88
2022/01/23 15:37:53;;;;;;;14.57;12.67;;;6.90;93.10;;;;;;5078585;28;20218;-88
2022/01/23 15:40:20;;;;;;;14.23;12.47;;;6.90;92.80;;;;;;5052061;28;20246;-88
2022/01/23 15:42:49;;;;;;;13.63;12.23;;;6.80;91.70;;;;;;5088847;28;20179;-88
2022/01/23 15:45:15;;;;;;;13.27;11.80;;;6.80;91.00;;;;;;5087681;28;20222;-88
2022/01/23 15:47:41;;;;;;;14.13;11.53;;;6.80;91.70;;;;;;5100679;28;20183;-88
2022/01/23 15:50:10;;;;;;;14.00;11.23;;;6.70;91.20;;;;;;5107602;28;20262;-87
2022/01/23 15:52:37;;;;;;;12.80;11.33;;;6.70;90.10;;;;;;5090436;28;20187;-87
2022/01/23 15:55:04;;;;;;;12.17;10.70;;;6.70;89.40;;;;;;5096571;28;20301;-89
2022/01/23 15:57:29;;;;;;;12.50;10.43;;;6.70;89.60;;;;;;5069618;28;20216;-88
2022/01/23 15:59:55;;;;;;;11.77;10.47;;;6.70;89.10;;;;;;5097140;28;20203;-88
2022/01/23 16:02:21;;;;;;;9.93;8.93;;;6.70;89.80;;;;;;5090197;28;20200;-89
2022/01/23 16:04:46;;;;;;;10.60;9.53;;;6.60;89.80;;;;;;5106074;28;20278;-89
2022/01/23 16:07:16;;;;;;;10.27;9.27;;;6.60;88.80;;;;;;5091050;28;20195;-89
2022/01/23 16:09:43;;;;;;;9.77;7.60;;;6.60;88.60;;;;;;5105445;28;20194;-88
2022/01/23 16:12:09;;;;;;;8.83;7.43;;;6.60;85.20;;;;;;5071985;28;20229;-90
2022/01/23 16:14:35;;;;;;;8.07;7.07;;;6.60;84.70;;;;;;5087673;28;20207;-88
2022/01/23 16:17:01;;;;;;;7.57;6.70;;;6.60;83.70;;;;;;5087326;28;20187;-88
2022/01/23 16:19:27;;;;;;;8.40;7.50;;;6.60;83.30;;;;;;5067834;28;20729;-88
2022/01/23 16:21:54;;;;;;;17.60;12.97;;;6.60;83.60;;;;;;5093771;28;20194;-88
2022/01/23 16:24:22;;;;;;;11.17;8.17;;;6.60;83.20;;;;;;5088567;28;20202;-88
2022/01/23 16:26:49;;;;;;;13.43;9.80;;;6.50;84.70;;;;;;5092314;28;20210;-88